sensor_id;sensor_type;location;lat;lon;timestamp;pressure;altitude;pressure_sealevel;temperature;humidity
8894;BME280;4483;48.622;9.230;2023-05-23T00:02:18;97705.16;;;16.57;100.00
8894;BME280;4483;48.622;9.230;2023-05-23T00:04:45;97716.81;;;16.52;100.00
8894;BME280;4483;48.622;9.230;2023-05-23T00:07:13;97712.81;;;16.46;100.00
8894;BME280;4483;48.622;9.230;2023-05-23T00:09:40;97707.81;;;16.43;100.00
8894;BME280;4483;48.622;9.230;2023-05-23T00:12:07;97715.38;;;16.34;100.00
8894;BME280;4483;48.622;9.230;2023-05-23T00:14:34;97719.19;;;16.28;100.00
8894;BME280;4483;48.622;9.230;2023-05-23T00:17:00;97722.97;;;16.24;100.00
8894;BME280;4483;48.622;9.230;2023-05-23T00:19:27;97730.66;;;16.26;100.00
8894;BME280;4483;48.622;9.230;2023-05-23T00:21:53;97722.84;;;16.26;100.00
8894;BME280;4483;48.622;9.230;2023-05-23T00:24:24;97715.88;;;16.26;100.00
8894;BME280;4483;48.622;9.230;2023-05-23T00:26:51;97719.19;;;16.28;100.00
8894;BME280;4483;48.622;9.230;2023-05-23T00:29:18;97719.03;;;16.31;100.00
8894;BME280;4483;48.622;9.230;2023-05-23T00:31:45;97720.03;;;16.29;100.00
8894;BME280;4483;48.622;9.230;2023-05-23T00:34:12;97716.72;;;16.27;100.00
8894;BME280;4483;48.622;9.230;2023-05-23T00:36:38;97720.25;;;16.26;100.00
8894;BME280;4483;48.622;9.230;2023-05-23T00:39:06;97717.56;;;16.27;100.00
8894;BME280;4483;48.622;9.230;2023-05-23T00:41:34;97718.47;;;16.26;100.00
8894;BME280;4483;48.622;9.230;2023-05-23T00:44:00;97715.97;;;16.25;100.00
8894;BME280;4483;48.622;9.230;2023-05-23T00:46:28;97716.06;;;16.23;100.00
8894;BME280;4483;48.622;9.230;2023-05-23T00:48:54;97719.63;;;16.22;100.00
8894;BME280;4483;48.622;9.230;2023-05-23T00:51:21;97724.09;;;16.20;100.00
8894;BME280;4483;48.622;9.230;2023-05-23T00:53:48;97719.81;;;16.19;100.00
8894;BME280;4483;48.622;9.230;2023-05-23T00:56:16;97720.00;;;16.16;100.00
8894;BME280;4483;48.622;9.230;2023-05-23T00:58:45;97715.09;;;16.11;100.00
8894;BME280;4483;48.622;9.230;2023-05-23T01:01:14;97723.19;;;16.07;100.00
8894;BME280;4483;48.622;9.230;2023-05-23T01:03:41;97725.16;;;16.03;100.00
8894;BME280;4483;48.622;9.230;2023-05-23T01:06:10;97717.75;;;15.97;100.00
8894;BME280;4483;48.622;9.230;2023-05-23T01:08:36;97723.78;;;15.98;100.00
8894;BME280;4483;48.622;9.230;2023-05-23T01:11:11;97734.09;;;15.99;100.00
8894;BME280;4483;48.622;9.230;2023-05-23T01:13:44;97727.31;;;15.97;100.00
8894;BME280;4483;48.622;9.230;2023-05-23T01:16:17;97731.88;;;15.93;100.00
8894;BME280;4483;48.622;9.230;2023-05-23T01:18:52;97728.63;;;15.90;100.00
8894;BME280;4483;48.622;9.230;2023-05-23T01:21:23;97727.16;;;15.86;100.00
8894;BME280;4483;48.622;9.230;2023-05-23T01:24:18;97736.84;;;15.84;100.00
8894;BME280;4483;48.622;9.230;2023-05-23T01:27:00;97737.13;;;15.79;100.00
8894;BME280;4483;48.622;9.230;2023-05-23T01:29:34;97733.13;;;15.74;100.00
8894;BME280;4483;48.622;9.230;2023-05-23T01:32:06;97729.78;;;15.72;100.00
8894;BME280;4483;48.622;9.230;2023-05-23T01:34:34;97731.75;;;15.68;100.00
8894;BME280;4483;48.622;9.230;2023-05-23T01:37:07;97730.16;;;15.66;100.00
8894;BME280;4483;48.622;9.230;2023-05-23T01:39:34;97723.13;;;15.68;100.00
8894;BME280;4483;48.622;9.230;2023-05-23T01:42:00;97722.94;;;15.71;100.00
8894;BME280;4483;48.622;9.230;2023-05-23T01:44:27;97728.88;;;15.73;100.00
8894;BME280;4483;48.622;9.230;2023-05-23T01:46:56;97718.28;;;15.76;100.00
8894;BME280;4483;48.622;9.230;2023-05-23T01:49:23;97728.88;;;15.73;100.00
8894;BME280;4483;48.622;9.230;2023-05-23T01:51:50;97737.78;;;15.69;100.00
8894;BME280;4483;48.622;9.230;2023-05-23T01:54:16;97739.53;;;15.68;100.00
8894;BME280;4483;48.622;9.230;2023-05-23T01:56:45;97743.84;;;15.69;100.00
8894;BME280;4483;48.622;9.230;2023-05-23T01:59:12;97729.38;;;15.65;100.00
8894;BME280;4483;48.622;9.230;2023-05-23T02:01:39;97742.44;;;15.64;100.00
8894;BME280;4483;48.622;9.230;2023-05-23T02:04:08;97737.00;;;15.54;100.00
8894;BME280;4483;48.622;9.230;2023-05-23T02:06:34;97737.34;;;15.48;100.00
8894;BME280;4483;48.622;9.230;2023-05-23T02:09:01;97737.56;;;15.45;100.00
8894;BME280;4483;48.622;9.230;2023-05-23T02:11:28;97745.25;;;15.47;100.00
8894;BME280;4483;48.622;9.230;2023-05-23T02:13:54;97744.41;;;15.46;100.00
8894;BME280;4483;48.622;9.230;2023-05-23T02:16:21;97743.56;;;15.46;100.00
8894;BME280;4483;48.622;9.230;2023-05-23T02:18:50;97742.84;;;15.44;100.00
8894;BME280;4483;48.622;9.230;2023-05-23T02:21:21;97742.00;;;15.43;100.00
8894;BME280;4483;48.622;9.230;2023-05-23T02:23:48;97735.06;;;15.44;100.00
8894;BME280;4483;48.622;9.230;2023-05-23T02:26:15;97740.25;;;15.44;100.00
8894;BME280;4483;48.622;9.230;2023-05-23T02:28:42;97742.09;;;15.42;100.00
8894;BME280;4483;48.622;9.230;2023-05-23T02:31:08;97742.09;;;15.42;100.00
8894;BME280;4483;48.622;9.230;2023-05-23T02:33:35;97744.69;;;15.42;100.00
8894;BME280;4483;48.622;9.230;2023-05-23T02:36:01;97739.53;;;15.40;100.00
8894;BME280;4483;48.622;9.230;2023-05-23T02:38:29;97745.59;;;15.41;100.00
8894;BME280;4483;48.622;9.230;2023-05-23T02:40:56;97743.75;;;15.29;100.00
8894;BME280;4483;48.622;9.230;2023-05-23T02:43:23;97748.34;;;15.24;100.00
8894;BME280;4483;48.622;9.230;2023-05-23T02:45:49;97751.25;;;15.19;100.00
8894;BME280;4483;48.622;9.230;2023-05-23T02:48:16;97742.63;;;15.19;100.00
8894;BME280;4483;48.622;9.230;2023-05-23T02:50:43;97737.72;;;15.14;100.00
8894;BME280;4483;48.622;9.230;2023-05-23T02:53:09;97746.06;;;15.19;100.00
8894;BME280;4483;48.622;9.230;2023-05-23T02:55:37;97741.88;;;15.17;100.00
8894;BME280;4483;48.622;9.230;2023-05-23T02:58:04;97738.53;;;15.14;100.00
8894;BME280;4483;48.622;9.230;2023-05-23T03:00:31;97735.22;;;15.13;100.00
8894;BME280;4483;48.622;9.230;2023-05-23T03:02:57;97743.06;;;15.11;100.00
8894;BME280;4483;48.622;9.230;2023-05-23T03:05:24;97747.44;;;15.10;100.00
8894;BME280;4483;48.622;9.230;2023-05-23T03:07:51;97747.44;;;15.10;100.00
8894;BME280;4483;48.622;9.230;2023-05-23T03:10:18;97745.31;;;15.03;100.00
8894;BME280;4483;48.622;9.230;2023-05-23T03:12:46;97757.69;;;14.98;100.00
8894;BME280;4483;48.622;9.230;2023-05-23T03:15:13;97746.69;;;14.94;100.00
8894;BME280;4483;48.622;9.230;2023-05-23T03:17:40;97746.88;;;14.91;100.00
8894;BME280;4483;48.622;9.230;2023-05-23T03:20:07;97748.34;;;14.81;100.00
8894;BME280;4483;48.622;9.230;2023-05-23T03:22:34;97749.34;;;14.79;100.00
8894;BME280;4483;48.622;9.230;2023-05-23T03:25:00;97760.47;;;14.81;100.00
8894;BME280;4483;48.622;9.230;2023-05-23T03:27:27;97753.44;;;14.83;100.00
8894;BME280;4483;48.622;9.230;2023-05-23T03:29:55;97749.06;;;14.83;100.00
8894;BME280;4483;48.622;9.230;2023-05-23T03:32:22;97754.09;;;14.86;100.00
8894;BME280;4483;48.622;9.230;2023-05-23T03:34:48;97760.69;;;14.92;100.00
8894;BME280;4483;48.622;9.230;2023-05-23T03:37:15;97763.81;;;14.97;100.00
8894;BME280;4483;48.622;9.230;2023-05-23T03:39:41;97769.56;;;15.02;100.00
8894;BME280;4483;48.622;9.230;2023-05-23T03:42:08;97774.66;;;15.03;100.00
8894;BME280;4483;48.622;9.230;2023-05-23T03:44:34;97775.41;;;15.05;100.00
8894;BME280;4483;48.622;9.230;2023-05-23T03:47:03;97772.56;;;15.10;100.00
8894;BME280;4483;48.622;9.230;2023-05-23T03:49:30;97774.06;;;15.14;100.00
8894;BME280;4483;48.622;9.230;2023-05-23T03:51:56;97778.94;;;15.19;100.00
8894;BME280;4483;48.622;9.230;2023-05-23T03:54:23;97777.00;;;15.22;100.00
8894;BME280;4483;48.622;9.230;2023-05-23T03:56:49;97783.03;;;15.23;100.00
8894;BME280;4483;48.622;9.230;2023-05-23T03:59:16;97770.91;;;15.23;100.00
8894;BME280;4483;48.622;9.230;2023-05-23T04:01:43;97772.47;;;15.26;100.00
8894;BME280;4483;48.622;9.230;2023-05-23T04:04:11;97766.34;;;15.27;100.00
8894;BME280;4483;48.622;9.230;2023-05-23T04:06:38;97765.25;;;15.31;100.00
8894;BME280;4483;48.622;9.230;2023-05-23T04:09:04;97766.00;;;15.33;100.00
8894;BME280;4483;48.622;9.230;2023-05-23T04:11:31;97758.75;;;15.38;100.00
8894;BME280;4483;48.622;9.230;2023-05-23T04:13:58;97769.03;;;15.39;100.00
8894;BME280;4483;48.622;9.230;2023-05-23T04:16:26;97768.06;;;15.42;100.00
8894;BME280;4483;48.622;9.230;2023-05-23T04:18:52;97766.13;;;15.45;100.00
8894;BME280;4483;48.622;9.230;2023-05-23T04:21:21;97758.22;;;15.47;100.00
8894;BME280;4483;48.622;9.230;2023-05-23T04:23:47;97766.00;;;15.47;100.00
8894;BME280;4483;48.622;9.230;2023-05-23T04:26:14;97766.00;;;15.47;100.00
8894;BME280;4483;48.622;9.230;2023-05-23T04:28:41;97771.09;;;15.48;100.00
8894;BME280;4483;48.622;9.230;2023-05-23T04:31:10;97769.25;;;15.50;100.00
8894;BME280;4483;48.622;9.230;2023-05-23T04:33:37;97774.25;;;15.53;100.00
8894;BME280;4483;48.622;9.230;2023-05-23T04:36:05;97770.44;;;15.59;100.00
8894;BME280;4483;48.622;9.230;2023-05-23T04:38:34;97768.59;;;15.61;100.00
8894;BME280;4483;48.622;9.230;2023-05-23T04:41:03;97769.97;;;15.66;100.00
8894;BME280;4483;48.622;9.230;2023-05-23T04:43:30;97770.63;;;15.70;100.00
8894;BME280;4483;48.622;9.230;2023-05-23T04:45:58;97771.34;;;15.72;100.00
8894;BME280;4483;48.622;9.230;2023-05-23T04:48:24;97778.03;;;15.76;100.00
8894;BME280;4483;48.622;9.230;2023-05-23T04:50:51;97780.53;;;15.77;100.00
8894;BME280;4483;48.622;9.230;2023-05-23T04:53:20;97779.69;;;15.77;100.00
8894;BME280;4483;48.622;9.230;2023-05-23T04:55:48;97784.88;;;15.77;100.00
8894;BME280;4483;48.622;9.230;2023-05-23T04:58:15;97785.63;;;15.79;100.00
8894;BME280;4483;48.622;9.230;2023-05-23T05:00:41;97789.81;;;15.81;100.00
8894;BME280;4483;48.622;9.230;2023-05-23T05:03:08;97793.88;;;15.85;100.00
8894;BME280;4483;48.622;9.230;2023-05-23T05:05:36;97791.19;;;15.87;100.00
8894;BME280;4483;48.622;9.230;2023-05-23T05:08:02;97792.69;;;15.91;100.00
8894;BME280;4483;48.622;9.230;2023-05-23T05:10:29;97792.47;;;15.94;100.00
8894;BME280;4483;48.622;9.230;2023-05-23T05:12:57;97796.75;;;15.95;100.00
8894;BME280;4483;48.622;9.230;2023-05-23T05:15:23;97799.25;;;15.96;100.00
8894;BME280;4483;48.622;9.230;2023-05-23T05:17:50;97799.16;;;15.98;100.00
8894;BME280;4483;48.622;9.230;2023-05-23T05:20:17;97802.66;;;15.97;100.00
8894;BME280;4483;48.622;9.230;2023-05-23T05:22:44;97795.72;;;15.97;100.00
8894;BME280;4483;48.622;9.230;2023-05-23T05:25:11;97801.94;;;15.95;100.00
8894;BME280;4483;48.622;9.230;2023-05-23T05:27:38;97796.75;;;15.95;100.00
8894;BME280;4483;48.622;9.230;2023-05-23T05:30:07;97799.16;;;15.98;100.00
8894;BME280;4483;48.622;9.230;2023-05-23T05:32:34;97805.09;;;16.00;100.00
8894;BME280;4483;48.622;9.230;2023-05-23T05:35:01;97795.44;;;16.02;100.00
8894;BME280;4483;48.622;9.230;2023-05-23T05:37:28;97802.66;;;16.11;100.00
8894;BME280;4483;48.622;9.230;2023-05-23T05:39:55;97806.53;;;16.18;100.00
8894;BME280;4483;48.622;9.230;2023-05-23T05:42:23;97816.44;;;16.26;100.00
8894;BME280;4483;48.622;9.230;2023-05-23T05:44:50;97808.97;;;16.34;100.00
8894;BME280;4483;48.622;9.230;2023-05-23T05:47:17;97805.97;;;16.40;100.00
8894;BME280;4483;48.622;9.230;2023-05-23T05:49:44;97820.56;;;16.42;100.00
8894;BME280;4483;48.622;9.230;2023-05-23T05:52:11;97816.19;;;16.43;100.00
8894;BME280;4483;48.622;9.230;2023-05-23T05:54:37;97809.53;;;16.65;100.00
8894;BME280;4483;48.622;9.230;2023-05-23T05:57:04;97815.84;;;16.61;100.00
8894;BME280;4483;48.622;9.230;2023-05-23T05:59:31;97816.41;;;16.66;100.00
8894;BME280;4483;48.622;9.230;2023-05-23T06:01:57;97810.59;;;16.75;100.00
8894;BME280;4483;48.622;9.230;2023-05-23T06:04:25;97807.47;;;16.83;100.00
8894;BME280;4483;48.622;9.230;2023-05-23T06:06:52;97808.66;;;16.91;100.00
8894;BME280;4483;48.622;9.230;2023-05-23T06:09:18;97816.47;;;17.04;100.00
8894;BME280;4483;48.622;9.230;2023-05-23T06:11:45;97810.75;;;17.12;100.00
8894;BME280;4483;48.622;9.230;2023-05-23T06:14:12;97812.75;;;17.21;100.00
8894;BME280;4483;48.622;9.230;2023-05-23T06:16:38;97811.91;;;17.33;100.00
8894;BME280;4483;48.622;9.230;2023-05-23T06:19:05;97808.28;;;17.48;100.00
8894;BME280;4483;48.622;9.230;2023-05-23T06:21:33;97813.28;;;17.63;100.00
8894;BME280;4483;48.622;9.230;2023-05-23T06:24:00;97820.13;;;17.77;100.00
8894;BME280;4483;48.622;9.230;2023-05-23T06:26:27;97817.72;;;17.86;100.00
8894;BME280;4483;48.622;9.230;2023-05-23T06:28:53;97819.06;;;17.92;100.00
8894;BME280;4483;48.622;9.230;2023-05-23T06:31:20;97817.94;;;17.96;100.00
8894;BME280;4483;48.622;9.230;2023-05-23T06:33:46;97823.88;;;17.98;100.00
8894;BME280;4483;48.622;9.230;2023-05-23T06:36:13;97832.41;;;18.00;100.00
8894;BME280;4483;48.622;9.230;2023-05-23T06:38:41;97835.72;;;18.02;100.00
8894;BME280;4483;48.622;9.230;2023-05-23T06:41:07;97830.31;;;18.05;100.00
8894;BME280;4483;48.622;9.230;2023-05-23T06:43:34;97824.66;;;18.11;100.00
8894;BME280;4483;48.622;9.230;2023-05-23T06:46:01;97819.22;;;18.14;100.00
8894;BME280;4483;48.622;9.230;2023-05-23T06:48:27;97824.94;;;18.19;100.00
8894;BME280;4483;48.622;9.230;2023-05-23T06:50:54;97832.44;;;18.24;100.00
8894;BME280;4483;48.622;9.230;2023-05-23T06:53:20;97835.78;;;18.26;100.00
8894;BME280;4483;48.622;9.230;2023-05-23T06:55:48;97842.66;;;18.27;100.00
8894;BME280;4483;48.622;9.230;2023-05-23T06:58:15;97840.03;;;18.27;100.00
8894;BME280;4483;48.622;9.230;2023-05-23T07:00:41;97843.25;;;18.30;100.00
8894;BME280;4483;48.622;9.230;2023-05-23T07:03:08;97842.34;;;18.31;100.00
8894;BME280;4483;48.622;9.230;2023-05-23T07:05:35;97851.69;;;18.34;100.00
8894;BME280;4483;48.622;9.230;2023-05-23T07:08:01;97852.53;;;18.34;100.00
8894;BME280;4483;48.622;9.230;2023-05-23T07:10:28;97853.28;;;18.36;100.00
8894;BME280;4483;48.622;9.230;2023-05-23T07:12:56;97860.13;;;18.37;100.00
8894;BME280;4483;48.622;9.230;2023-05-23T07:15:23;97856.41;;;18.41;100.00
8894;BME280;4483;48.622;9.230;2023-05-23T07:17:49;97860.66;;;18.42;100.00
8894;BME280;4483;48.622;9.230;2023-05-23T07:20:16;97855.44;;;18.42;100.00
8894;BME280;4483;48.622;9.230;2023-05-23T07:22:42;97851.91;;;18.43;100.00
8894;BME280;4483;48.622;9.230;2023-05-23T07:25:09;97864.72;;;18.46;100.00
8894;BME280;4483;48.622;9.230;2023-05-23T07:27:36;97863.19;;;18.44;100.00
8894;BME280;4483;48.622;9.230;2023-05-23T07:30:05;97869.44;;;18.41;100.00
8894;BME280;4483;48.622;9.230;2023-05-23T07:32:34;97870.56;;;18.37;100.00
8894;BME280;4483;48.622;9.230;2023-05-23T07:35:00;97865.59;;;18.34;100.00
8894;BME280;4483;48.622;9.230;2023-05-23T07:37:27;97871.72;;;18.33;100.00
8894;BME280;4483;48.622;9.230;2023-05-23T07:39:54;97877.28;;;18.29;100.00
8894;BME280;4483;48.622;9.230;2023-05-23T07:42:20;97877.50;;;18.26;100.00
8894;BME280;4483;48.622;9.230;2023-05-23T07:44:47;97886.50;;;18.22;100.00
8894;BME280;4483;48.622;9.230;2023-05-23T07:47:15;97878.97;;;18.17;100.00
8894;BME280;4483;48.622;9.230;2023-05-23T07:49:41;97885.06;;;18.05;100.00
8894;BME280;4483;48.622;9.230;2023-05-23T07:52:09;97883.81;;;17.98;100.00
8894;BME280;4483;48.622;9.230;2023-05-23T07:54:35;97890.81;;;17.97;100.00
8894;BME280;4483;48.622;9.230;2023-05-23T07:57:02;97894.44;;;17.95;100.00
8894;BME280;4483;48.622;9.230;2023-05-23T07:59:30;97889.34;;;17.93;100.00
8894;BME280;4483;48.622;9.230;2023-05-23T08:01:57;97885.38;;;17.88;100.00
8894;BME280;4483;48.622;9.230;2023-05-23T08:04:25;97898.19;;;17.91;100.00
8894;BME280;4483;48.622;9.230;2023-05-23T08:06:51;97892.78;;;17.94;100.00
8894;BME280;4483;48.622;9.230;2023-05-23T08:09:19;97890.91;;;17.96;100.00
8894;BME280;4483;48.622;9.230;2023-05-23T08:11:46;97893.41;;;17.97;100.00
8894;BME280;4483;48.622;9.230;2023-05-23T08:14:13;97893.19;;;18.00;100.00
8894;BME280;4483;48.622;9.230;2023-05-23T08:16:39;97897.88;;;18.08;100.00
8894;BME280;4483;48.622;9.230;2023-05-23T08:19:06;97903.50;;;18.15;100.00
8894;BME280;4483;48.622;9.230;2023-05-23T08:21:34;97905.66;;;18.21;100.00
8894;BME280;4483;48.622;9.230;2023-05-23T08:24:01;97910.34;;;18.28;100.00
8894;BME280;4483;48.622;9.230;2023-05-23T08:26:28;97909.91;;;18.34;100.00
8894;BME280;4483;48.622;9.230;2023-05-23T08:29:00;97909.31;;;18.43;100.00
8894;BME280;4483;48.622;9.230;2023-05-23T08:31:28;97909.81;;;18.48;100.00
8894;BME280;4483;48.622;9.230;2023-05-23T08:33:54;97918.84;;;18.55;100.00
8894;BME280;4483;48.622;9.230;2023-05-23T08:36:21;97928.38;;;18.56;100.00
8894;BME280;4483;48.622;9.230;2023-05-23T08:38:50;97926.25;;;18.61;100.00
8894;BME280;4483;48.622;9.230;2023-05-23T08:41:18;97924.00;;;18.57;99.43
8894;BME280;4483;48.622;9.230;2023-05-23T08:43:45;97927.88;;;18.51;99.04
8894;BME280;4483;48.622;9.230;2023-05-23T08:46:12;97928.06;;;18.48;98.60
8894;BME280;4483;48.622;9.230;2023-05-23T08:48:41;97921.81;;;18.38;98.32
8894;BME280;4483;48.622;9.230;2023-05-23T08:51:08;97931.00;;;18.31;98.70
8894;BME280;4483;48.622;9.230;2023-05-23T08:53:37;97936.22;;;18.31;99.40
8894;BME280;4483;48.622;9.230;2023-05-23T08:56:08;97939.34;;;18.36;97.50
8894;BME280;4483;48.622;9.230;2023-05-23T08:58:35;97942.47;;;18.29;97.47
8894;BME280;4483;48.622;9.230;2023-05-23T09:01:03;97949.19;;;18.20;97.66
8894;BME280;4483;48.622;9.230;2023-05-23T09:03:30;97947.63;;;18.18;97.44
8894;BME280;4483;48.622;9.230;2023-05-23T09:05:57;97950.22;;;18.18;97.45
8894;BME280;4483;48.622;9.230;2023-05-23T09:08:24;97947.72;;;18.16;97.98
8894;BME280;4483;48.622;9.230;2023-05-23T09:10:51;97958.66;;;18.21;97.65
8894;BME280;4483;48.622;9.230;2023-05-23T09:13:19;97955.75;;;18.26;97.94
8894;BME280;4483;48.622;9.230;2023-05-23T09:16:02;97960.53;;;18.44;96.07
8894;BME280;4483;48.622;9.230;2023-05-23T09:18:33;97952.69;;;18.44;95.42
8894;BME280;4483;48.622;9.230;2023-05-23T09:21:00;97961.25;;;18.46;95.34
8894;BME280;4483;48.622;9.230;2023-05-23T09:23:29;97961.88;;;18.50;94.96
8894;BME280;4483;48.622;9.230;2023-05-23T09:25:55;97972.84;;;18.55;94.88
8894;BME280;4483;48.622;9.230;2023-05-23T09:28:23;97967.09;;;18.62;94.28
8894;BME280;4483;48.622;9.230;2023-05-23T09:30:57;97971.22;;;18.65;93.63
8894;BME280;4483;48.622;9.230;2023-05-23T09:33:28;97966.63;;;18.68;93.14
8894;BME280;4483;48.622;9.230;2023-05-23T09:35:55;97978.03;;;18.67;92.13
8894;BME280;4483;48.622;9.230;2023-05-23T09:38:23;97977.06;;;18.68;92.14
8894;BME280;4483;48.622;9.230;2023-05-23T09:40:53;97967.78;;;18.64;91.90
8894;BME280;4483;48.622;9.230;2023-05-23T09:43:23;97977.91;;;18.69;92.23
8894;BME280;4483;48.622;9.230;2023-05-23T09:45:52;97980.19;;;18.73;91.65
8894;BME280;4483;48.622;9.230;2023-05-23T09:48:18;97983.75;;;18.72;91.13
8894;BME280;4483;48.622;9.230;2023-05-23T09:50:45;97976.88;;;18.71;88.30
8894;BME280;4483;48.622;9.230;2023-05-23T09:53:15;97985.84;;;18.67;89.22
8894;BME280;4483;48.622;9.230;2023-05-23T09:55:42;97981.38;;;18.69;89.47
8894;BME280;4483;48.622;9.230;2023-05-23T09:58:09;97987.50;;;18.68;88.67
8894;BME280;4483;48.622;9.230;2023-05-23T10:00:38;97987.41;;;18.70;88.83
8894;BME280;4483;48.622;9.230;2023-05-23T10:03:09;97983.94;;;18.82;87.45
8894;BME280;4483;48.622;9.230;2023-05-23T10:05:42;97980.78;;;18.89;87.61
8894;BME280;4483;48.622;9.230;2023-05-23T10:08:13;97976.34;;;19.02;86.95
8894;BME280;4483;48.622;9.230;2023-05-23T10:14:04;97976.53;;;19.47;85.95
8894;BME280;4483;48.622;9.230;2023-05-23T10:16:38;97979.50;;;19.77;83.62
8894;BME280;4483;48.622;9.230;2023-05-23T10:19:08;97978.13;;;20.06;82.16
8894;BME280;4483;48.622;9.230;2023-05-23T10:21:39;97968.28;;;20.21;80.46
8894;BME280;4483;48.622;9.230;2023-05-23T10:24:10;97971.50;;;20.35;78.92
8894;BME280;4483;48.622;9.230;2023-05-23T10:26:37;97968.53;;;20.40;77.52
8894;BME280;4483;48.622;9.230;2023-05-23T10:29:05;97970.06;;;20.42;77.81
8894;BME280;4483;48.622;9.230;2023-05-23T10:31:34;97969.84;;;20.45;76.62
8894;BME280;4483;48.622;9.230;2023-05-23T10:34:10;97968.38;;;20.74;76.21
8894;BME280;4483;48.622;9.230;2023-05-23T10:36:43;97964.53;;;20.89;74.86
8894;BME280;4483;48.622;9.230;2023-05-23T10:39:20;97952.84;;;21.05;74.47
8894;BME280;4483;48.622;9.230;2023-05-23T10:41:54;97966.50;;;21.19;74.17
8894;BME280;4483;48.622;9.230;2023-05-23T10:44:26;97977.09;;;21.18;74.00
8894;BME280;4483;48.622;9.230;2023-05-23T10:46:56;97964.25;;;21.15;73.88
8894;BME280;4483;48.622;9.230;2023-05-23T10:49:36;97958.66;;;21.40;72.45
8894;BME280;4483;48.622;9.230;2023-05-23T10:52:03;97951.16;;;22.08;71.26
8894;BME280;4483;48.622;9.230;2023-05-23T10:54:34;97954.47;;;22.70;69.87
8894;BME280;4483;48.622;9.230;2023-05-23T10:57:04;97963.06;;;22.91;67.19
8894;BME280;4483;48.622;9.230;2023-05-23T10:59:31;97963.47;;;22.77;66.20
8894;BME280;4483;48.622;9.230;2023-05-23T11:02:02;97966.34;;;22.65;65.63
8894;BME280;4483;48.622;9.230;2023-05-23T11:04:29;97957.25;;;22.48;65.54
8894;BME280;4483;48.622;9.230;2023-05-23T11:06:55;97958.59;;;22.33;65.86
8894;BME280;4483;48.622;9.230;2023-05-23T11:09:22;97960.44;;;22.52;65.92
8894;BME280;4483;48.622;9.230;2023-05-23T11:11:59;97966.22;;;22.85;65.37
8894;BME280;4483;48.622;9.230;2023-05-23T11:14:32;97953.41;;;22.92;63.57
8894;BME280;4483;48.622;9.230;2023-05-23T11:17:14;97965.28;;;22.86;62.97
8894;BME280;4483;48.622;9.230;2023-05-23T11:19:54;97960.28;;;22.74;63.42
8894;BME280;4483;48.622;9.230;2023-05-23T11:22:26;97960.09;;;22.66;62.66
8894;BME280;4483;48.622;9.230;2023-05-23T11:24:54;97960.78;;;22.58;63.46
8894;BME280;4483;48.622;9.230;2023-05-23T11:27:25;97954.88;;;22.45;62.71
8894;BME280;4483;48.622;9.230;2023-05-23T11:30:00;97962.25;;;22.51;63.40
8894;BME280;4483;48.622;9.230;2023-05-23T11:32:29;97952.31;;;22.55;62.48
8894;BME280;4483;48.622;9.230;2023-05-23T11:34:59;97955.66;;;22.57;62.44
8894;BME280;4483;48.622;9.230;2023-05-23T11:37:27;97959.81;;;22.59;62.19
8894;BME280;4483;48.622;9.230;2023-05-23T11:39:54;97953.44;;;22.62;62.56
8894;BME280;4483;48.622;9.230;2023-05-23T11:42:21;97954.91;;;22.55;61.89
8894;BME280;4483;48.622;9.230;2023-05-23T11:44:48;97954.81;;;22.56;61.88
8894;BME280;4483;48.622;9.230;2023-05-23T11:47:15;97952.16;;;22.47;62.22
8894;BME280;4483;48.622;9.230;2023-05-23T11:49:44;97953.06;;;22.36;62.76
8894;BME280;4483;48.622;9.230;2023-05-23T11:52:11;97957.44;;;22.26;62.22
8894;BME280;4483;48.622;9.230;2023-05-23T11:54:39;97951.69;;;22.32;62.63
8894;BME280;4483;48.622;9.230;2023-05-23T11:57:06;97956.13;;;22.41;62.16
8894;BME280;4483;48.622;9.230;2023-05-23T11:59:33;97956.13;;;22.41;61.75
8894;BME280;4483;48.622;9.230;2023-05-23T12:02:01;97952.53;;;22.42;61.04
8894;BME280;4483;48.622;9.230;2023-05-23T12:04:28;97955.88;;;22.44;61.39
8894;BME280;4483;48.622;9.230;2023-05-23T12:06:56;97961.75;;;22.57;61.61
8894;BME280;4483;48.622;9.230;2023-05-23T12:09:22;97952.94;;;22.68;59.59
8894;BME280;4483;48.622;9.230;2023-05-23T12:11:50;97957.50;;;22.75;60.86
8894;BME280;4483;48.622;9.230;2023-05-23T12:14:17;97949.63;;;22.75;60.00
8894;BME280;4483;48.622;9.230;2023-05-23T12:16:44;97956.41;;;22.78;59.55
8894;BME280;4483;48.622;9.230;2023-05-23T12:19:11;97953.09;;;22.85;59.64
8894;BME280;4483;48.622;9.230;2023-05-23T12:21:42;97949.81;;;23.12;58.63
8894;BME280;4483;48.622;9.230;2023-05-23T12:24:18;97952.91;;;23.36;58.21
8894;BME280;4483;48.622;9.230;2023-05-23T12:26:49;97953.19;;;23.43;57.25
8894;BME280;4483;48.622;9.230;2023-05-23T12:29:17;97950.00;;;23.49;57.25
8894;BME280;4483;48.622;9.230;2023-05-23T12:31:47;97946.38;;;23.78;56.40
8894;BME280;4483;48.622;9.230;2023-05-23T12:34:14;97939.69;;;24.03;56.27
8894;BME280;4483;48.622;9.230;2023-05-23T12:36:40;97941.63;;;24.01;55.93
8894;BME280;4483;48.622;9.230;2023-05-23T12:39:08;97935.25;;;23.94;55.56
8894;BME280;4483;48.622;9.230;2023-05-23T12:41:37;97941.81;;;23.71;54.48
8894;BME280;4483;48.622;9.230;2023-05-23T12:44:06;97944.59;;;23.50;55.13
8894;BME280;4483;48.622;9.230;2023-05-23T12:46:33;97935.63;;;23.53;55.57
8894;BME280;4483;48.622;9.230;2023-05-23T12:49:00;97936.72;;;23.41;54.63
8894;BME280;4483;48.622;9.230;2023-05-23T12:51:26;97946.81;;;23.36;56.11
8894;BME280;4483;48.622;9.230;2023-05-23T12:53:53;97949.44;;;23.36;55.75
8894;BME280;4483;48.622;9.230;2023-05-23T12:56:20;97940.88;;;23.43;56.11
8894;BME280;4483;48.622;9.230;2023-05-23T12:58:49;97933.38;;;23.39;55.70
8894;BME280;4483;48.622;9.230;2023-05-23T13:01:15;97932.78;;;23.83;55.28
8894;BME280;4483;48.622;9.230;2023-05-23T13:03:42;97927.69;;;24.28;55.16
8894;BME280;4483;48.622;9.230;2023-05-23T13:06:08;97916.16;;;24.56;54.26
8894;BME280;4483;48.622;9.230;2023-05-23T13:08:36;97916.81;;;24.40;53.70
8894;BME280;4483;48.622;9.230;2023-05-23T13:11:03;97922.78;;;24.42;53.56
8894;BME280;4483;48.622;9.230;2023-05-23T13:13:30;97925.53;;;24.77;53.06
8894;BME280;4483;48.622;9.230;2023-05-23T13:15:59;97926.22;;;25.15;52.31
8894;BME280;4483;48.622;9.230;2023-05-23T13:18:26;97921.56;;;25.26;51.65
8894;BME280;4483;48.622;9.230;2023-05-23T13:20:52;97933.31;;;25.14;51.17
8894;BME280;4483;48.622;9.230;2023-05-23T13:23:19;97931.53;;;24.87;50.77